createdAt,value
2022-10-26T00:02:14.377Z,9.64
2022-10-26T00:04:59.600Z,9.47
2022-10-26T00:07:44.472Z,9.22
2022-10-26T00:10:31.607Z,9.28
2022-10-26T00:13:16.850Z,9.25
2022-10-26T00:16:02.150Z,9.19
2022-10-26T00:18:47.776Z,9.17
2022-10-26T00:21:32.958Z,9.28
2022-10-26T00:27:02.667Z,9.41
2022-10-26T00:29:47.579Z,9.35
2022-10-26T00:32:33.132Z,9.36
2022-10-26T00:35:23.262Z,9.34
2022-10-26T00:38:14.084Z,9.31
2022-10-26T00:40:59.506Z,9.36
2022-10-26T00:43:45.333Z,9.31
2022-10-26T00:46:37.458Z,9.29
2022-10-26T00:49:22.363Z,9.35
2022-10-26T00:52:09.037Z,9.37
2022-10-26T00:54:54.085Z,9.37
2022-10-26T00:57:39.796Z,9.35
2022-10-26T01:00:24.810Z,9.40
2022-10-26T01:03:11.217Z,9.51
2022-10-26T01:05:58.768Z,9.59
2022-10-26T01:08:44.001Z,9.49
2022-10-26T01:11:29.105Z,9.46
2022-10-26T01:14:17.655Z,9.52
2022-10-26T01:17:11.762Z,9.40
2022-10-26T01:19:59.798Z,9.37
2022-10-26T01:23:02.237Z,9.38
2022-10-26T01:25:53.297Z,9.35
2022-10-26T01:28:48.473Z,9.44
2022-10-26T01:31:42.816Z,9.48
2022-10-26T01:34:42.871Z,9.43
2022-10-26T01:37:35.671Z,9.48
2022-10-26T01:40:31.090Z,9.49
2022-10-26T01:43:17.137Z,9.54
2022-10-26T01:46:06.170Z,9.48
2022-10-26T01:48:56.993Z,9.40
2022-10-26T01:51:44.102Z,9.49
2022-10-26T01:54:29.414Z,9.54
2022-10-26T01:57:19.077Z,9.59
2022-10-26T02:00:08.499Z,9.57
2022-10-26T02:02:56.249Z,9.54
2022-10-26T02:06:06.674Z,9.54
2022-10-26T02:09:08.806Z,9.50
2022-10-26T02:11:55.493Z,9.54
2022-10-26T02:14:51.025Z,9.54
2022-10-26T02:17:53.709Z,9.48
2022-10-26T02:20:46.802Z,9.43
2022-10-26T02:23:35.071Z,9.51
2022-10-26T02:26:24.242Z,9.46
2022-10-26T02:29:13.897Z,9.59
2022-10-26T02:32:01.312Z,9.51
2022-10-26T02:34:48.929Z,9.51
2022-10-26T02:37:36.426Z,9.51
2022-10-26T02:40:26.063Z,9.62
2022-10-26T02:43:15.066Z,9.54
2022-10-26T02:46:05.777Z,9.41
2022-10-26T02:48:50.516Z,9.47
2022-10-26T02:51:54.014Z,9.45
2022-10-26T02:54:51.156Z,9.51
2022-10-26T02:57:38.923Z,9.51
2022-10-26T03:00:24.449Z,9.46
2022-10-26T03:03:09.821Z,9.55
2022-10-26T03:05:54.897Z,9.53
2022-10-26T03:08:39.863Z,9.48
2022-10-26T03:11:24.794Z,9.48
2022-10-26T03:14:10.220Z,9.63
2022-10-26T03:16:55.828Z,9.67
2022-10-26T03:19:40.805Z,9.60
2022-10-26T03:22:25.968Z,9.62
2022-10-26T03:25:10.856Z,9.68
2022-10-26T03:28:00.772Z,9.68
2022-10-26T03:30:45.682Z,9.71
2022-10-26T03:33:30.545Z,9.77
2022-10-26T03:36:15.967Z,9.81
2022-10-26T03:39:01.084Z,9.87
2022-10-26T03:41:46.133Z,9.90
2022-10-26T03:44:31.562Z,9.88
2022-10-26T03:47:17.541Z,9.92
2022-10-26T03:50:02.938Z,9.96
2022-10-26T03:52:49.540Z,9.97
2022-10-26T03:55:34.658Z,9.94
2022-10-26T03:58:20.569Z,9.93
2022-10-26T04:01:05.487Z,10.00
2022-10-26T04:03:50.928Z,10.08
2022-10-26T04:06:36.684Z,9.99
2022-10-26T04:09:23.294Z,10.02
2022-10-26T04:12:08.703Z,10.13
2022-10-26T04:14:53.830Z,10.09
2022-10-26T04:17:39.097Z,10.04
2022-10-26T04:20:25.456Z,10.02
2022-10-26T04:23:16.500Z,10.06
2022-10-26T04:26:01.508Z,10.16
2022-10-26T04:28:46.609Z,10.15
2022-10-26T04:31:32.195Z,10.05
2022-10-26T04:34:17.395Z,10.04
2022-10-26T04:37:02.289Z,10.09
2022-10-26T04:39:47.157Z,10.18
2022-10-26T04:42:32.035Z,10.23
2022-10-26T04:45:17.020Z,10.30
2022-10-26T04:48:11.372Z,10.29
2022-10-26T04:51:00.472Z,10.36
2022-10-26T04:53:45.271Z,10.33
2022-10-26T04:56:30.406Z,10.36
2022-10-26T04:59:15.742Z,10.34
2022-10-26T05:02:00.970Z,10.39
2022-10-26T05:04:46.435Z,10.42
2022-10-26T05:07:31.273Z,10.46
2022-10-26T05:10:16.400Z,10.54
2022-10-26T05:13:01.713Z,10.52
2022-10-26T05:15:46.798Z,10.41
2022-10-26T05:18:31.647Z,10.44
2022-10-26T05:21:17.479Z,10.45
2022-10-26T05:24:02.431Z,10.42
2022-10-26T05:26:47.645Z,10.46
2022-10-26T05:29:32.495Z,10.43
2022-10-26T05:32:17.216Z,10.48
2022-10-26T05:35:02.702Z,10.48
2022-10-26T05:37:47.675Z,10.48
2022-10-26T05:40:32.624Z,10.49
2022-10-26T05:43:18.749Z,10.51
2022-10-26T05:46:03.957Z,10.56
2022-10-26T05:48:49.134Z,10.57
2022-10-26T05:51:34.229Z,10.56
2022-10-26T05:54:19.440Z,10.68
2022-10-26T05:57:05.179Z,10.68
2022-10-26T05:59:50.211Z,10.71
2022-10-26T06:03:06.535Z,10.72
2022-10-26T06:06:00.703Z,10.72
2022-10-26T06:08:48.093Z,10.73
2022-10-26T06:11:33.159Z,10.74
2022-10-26T06:14:18.614Z,10.80
2022-10-26T06:17:21.845Z,10.82
2022-10-26T06:20:31.185Z,10.87
2022-10-26T06:23:43.994Z,10.89
2022-10-26T06:26:32.767Z,10.93
2022-10-26T06:29:55.464Z,10.96
2022-10-26T06:33:01.087Z,10.99
2022-10-26T06:36:18.214Z,10.95
2022-10-26T06:39:07.508Z,11.06
2022-10-26T06:41:52.496Z,11.10
2022-10-26T06:44:37.894Z,11.12
2022-10-26T06:47:48.004Z,11.16
2022-10-26T06:50:41.697Z,11.19
2022-10-26T06:53:43.844Z,11.21
2022-10-26T06:56:29.486Z,11.30
2022-10-26T06:59:37.578Z,11.41
2022-10-26T07:02:23.200Z,11.43
2022-10-26T07:05:08.421Z,11.50
2022-10-26T07:07:53.724Z,11.52
2022-10-26T07:10:39.313Z,11.62
2022-10-26T07:13:24.508Z,11.64
2022-10-26T07:16:09.947Z,11.69
2022-10-26T07:18:55.554Z,11.76
2022-10-26T07:21:40.464Z,11.80
2022-10-26T07:24:26.053Z,11.78
2022-10-26T07:27:11.351Z,11.77
2022-10-26T07:29:56.214Z,11.80
2022-10-26T07:32:41.460Z,11.84
2022-10-26T07:35:26.477Z,11.94
2022-10-26T07:38:12.686Z,12.04
2022-10-26T07:40:57.913Z,12.09
2022-10-26T07:43:42.790Z,12.15
2022-10-26T07:46:28.649Z,12.16
2022-10-26T07:49:16.269Z,12.27
2022-10-26T07:52:04.443Z,12.34
2022-10-26T07:54:49.642Z,12.37
2022-10-26T07:57:34.555Z,12.42
2022-10-26T08:00:19.860Z,12.44
2022-10-26T08:03:04.861Z,12.51
2022-10-26T08:05:50.071Z,12.63
2022-10-26T08:08:35.338Z,12.73
2022-10-26T08:11:20.392Z,12.90
2022-10-26T08:14:05.775Z,12.99
2022-10-26T08:16:50.788Z,12.99
2022-10-26T08:19:36.166Z,13.00
2022-10-26T08:22:21.408Z,13.05
2022-10-26T08:25:06.973Z,13.07
2022-10-26T08:27:52.522Z,13.19
2022-10-26T08:30:37.603Z,13.21
2022-10-26T08:33:23.340Z,13.22
2022-10-26T08:36:08.232Z,13.43
2022-10-26T08:38:53.803Z,13.44
2022-10-26T08:41:46.554Z,13.51
2022-10-26T08:44:51.249Z,13.64
2022-10-26T08:47:44.499Z,13.71
2022-10-26T08:50:42.063Z,13.67
2022-10-26T08:53:27.889Z,13.72
2022-10-26T08:56:21.879Z,13.76
2022-10-26T08:59:24.989Z,13.84
2022-10-26T09:02:14.193Z,13.87
2022-10-26T09:05:00.429Z,13.94
2022-10-26T09:07:45.666Z,14.00
2022-10-26T09:10:33.557Z,14.16
2022-10-26T09:13:42.288Z,14.23
2022-10-26T09:16:42.432Z,14.37
2022-10-26T09:19:45.552Z,14.37
2022-10-26T09:22:38.743Z,14.45
2022-10-26T09:25:29.517Z,14.48
2022-10-26T09:28:18.717Z,14.60
2022-10-26T09:31:04.851Z,14.72
2022-10-26T09:33:51.921Z,14.80
2022-10-26T09:36:36.982Z,14.78
2022-10-26T09:39:33.843Z,14.91
2022-10-26T09:42:43.224Z,15.06
2022-10-26T09:45:28.034Z,15.13
2022-10-26T09:48:22.673Z,15.23
2022-10-26T09:51:07.840Z,15.36
2022-10-26T09:53:56.140Z,15.45
2022-10-26T09:56:43.685Z,15.64
2022-10-26T09:59:33.684Z,15.67
2022-10-26T10:02:38.654Z,15.78
2022-10-26T10:05:45.798Z,15.96
2022-10-26T10:08:30.254Z,15.92
2022-10-26T10:11:15.594Z,16.23
2022-10-26T10:14:07.615Z,16.37
2022-10-26T10:16:57.719Z,16.57
2022-10-26T10:19:42.440Z,16.78
2022-10-26T10:22:28.332Z,16.99
2022-10-26T10:25:26.114Z,17.11
2022-10-26T10:31:22.606Z,17.17
2022-10-26T10:34:22.127Z,17.07
2022-10-26T10:37:15.117Z,17.07
2022-10-26T10:40:08.021Z,17.12
2022-10-26T10:43:03.038Z,17.18
2022-10-26T10:45:53.671Z,17.32
2022-10-26T10:48:47.367Z,17.36
2022-10-26T10:51:39.542Z,17.40
2022-10-26T10:54:39.113Z,17.50
2022-10-26T10:57:47.599Z,17.83
2022-10-26T11:00:37.023Z,18.12
2022-10-26T11:03:50.374Z,18.16
2022-10-26T11:06:40.981Z,18.11
2022-10-26T11:09:29.708Z,18.32
2022-10-26T11:12:37.623Z,18.60
2022-10-26T11:15:26.199Z,18.32
2022-10-26T11:18:33.912Z,18.28
2022-10-26T11:21:31.121Z,18.34
2022-10-26T11:24:29.838Z,18.28
2022-10-26T11:27:17.999Z,18.68
2022-10-26T11:30:19.601Z,18.70
2022-10-26T11:33:13.781Z,18.42
2022-10-26T11:36:05.009Z,18.26
2022-10-26T11:38:59.298Z,18.53
2022-10-26T11:41:56.245Z,18.60
2022-10-26T11:44:57.894Z,18.71
2022-10-26T11:47:52.681Z,18.76
2022-10-26T11:50:54.237Z,18.72
2022-10-26T11:53:43.965Z,18.67
2022-10-26T11:56:39.319Z,18.78
2022-10-26T11:59:33.296Z,18.90
2022-10-26T12:02:24.506Z,18.97
2022-10-26T12:05:15.454Z,19.33
2022-10-26T12:08:05.482Z,19.32
2022-10-26T12:11:05.278Z,19.44
2022-10-26T12:13:56.695Z,19.38
2022-10-26T12:17:11.525Z,19.40
2022-10-26T12:20:18.027Z,19.14
2022-10-26T12:23:05.106Z,19.20
2022-10-26T12:25:50.225Z,19.15
2022-10-26T12:28:35.394Z,19.53
2022-10-26T12:31:32.938Z,19.82
2022-10-26T12:34:30.675Z,19.76
2022-10-26T12:37:32.030Z,19.81
2022-10-26T12:40:43.382Z,19.86
2022-10-26T12:43:31.463Z,20.19
2022-10-26T12:46:16.888Z,20.18
2022-10-26T12:49:01.933Z,19.99
2022-10-26T12:51:46.716Z,19.64
2022-10-26T12:54:40.106Z,19.78
2022-10-26T12:57:46.248Z,19.97
2022-10-26T13:00:34.443Z,19.82
2022-10-26T13:03:34.433Z,19.87
2022-10-26T13:06:31.814Z,19.94
2022-10-26T13:09:37.408Z,20.05
2022-10-26T13:12:22.626Z,20.38
2022-10-26T13:15:24.480Z,20.42
2022-10-26T13:18:16.586Z,20.24
2022-10-26T13:21:09.437Z,20.55
2022-10-26T13:23:54.157Z,20.78
2022-10-26T13:27:07.140Z,20.50
2022-10-26T13:30:04.777Z,19.75
2022-10-26T13:32:55.792Z,19.76
2022-10-26T13:35:42.929Z,19.73
2022-10-26T13:38:33.765Z,19.94
2022-10-26T13:41:30.507Z,19.58
2022-10-26T13:44:39.065Z,19.60
2022-10-26T13:47:26.958Z,19.62
2022-10-26T13:50:17.050Z,19.60
2022-10-26T13:53:17.469Z,19.62
2022-10-26T13:56:17.375Z,19.78
2022-10-26T13:59:11.127Z,19.97
2022-10-26T14:02:26.630Z,19.91
2022-10-26T14:05:14.552Z,19.74
2022-10-26T14:07:59.983Z,19.76
2022-10-26T14:10:47.942Z,19.59
2022-10-26T14:13:34.195Z,19.58
2022-10-26T14:16:20.167Z,19.57
2022-10-26T14:19:05.488Z,19.57
2022-10-26T14:21:51.022Z,19.55
2022-10-26T14:24:47.009Z,19.45
2022-10-26T14:27:39.073Z,19.34
2022-10-26T14:30:31.812Z,19.37
2022-10-26T14:33:18.757Z,19.37
2022-10-26T14:36:04.671Z,19.32
2022-10-26T14:38:56.734Z,19.27
2022-10-26T14:41:42.673Z,19.20
2022-10-26T14:44:27.738Z,19.19
2022-10-26T14:47:32.559Z,19.14
2022-10-26T14:50:22.158Z,19.15
2022-10-26T14:53:16.716Z,19.18
2022-10-26T14:56:04.113Z,19.36
2022-10-26T14:58:49.815Z,19.21
2022-10-26T15:01:49.412Z,19.22
2022-10-26T15:04:36.089Z,19.32
2022-10-26T15:07:21.051Z,19.19
2022-10-26T15:10:06.096Z,19.05
2022-10-26T15:12:51.266Z,18.91
2022-10-26T15:15:39.584Z,18.79
2022-10-26T15:18:35.038Z,18.71
2022-10-26T15:21:27.028Z,18.76
2022-10-26T15:24:39.251Z,18.63
2022-10-26T15:27:25.134Z,18.54
2022-10-26T15:30:21.487Z,18.46
2022-10-26T15:33:19.877Z,18.36
2022-10-26T15:36:08.222Z,18.37
2022-10-26T15:38:53.665Z,18.18
2022-10-26T15:41:45.981Z,18.20
2022-10-26T15:44:30.790Z,18.06
2022-10-26T15:47:18.531Z,18.05
2022-10-26T15:50:04.191Z,17.98
2022-10-26T15:52:49.797Z,17.87
2022-10-26T15:55:35.889Z,17.87
2022-10-26T15:58:21.609Z,17.88
2022-10-26T16:01:06.662Z,17.82
2022-10-26T16:03:52.992Z,17.83
2022-10-26T16:06:39.897Z,17.88
2022-10-26T16:09:24.615Z,17.83
2022-10-26T16:12:13.569Z,17.73
2022-10-26T16:15:05.458Z,17.48
2022-10-26T16:17:51.947Z,17.50
2022-10-26T16:20:37.402Z,17.49
2022-10-26T16:23:22.996Z,17.64
2022-10-26T16:26:08.839Z,17.64
2022-10-26T16:28:53.690Z,17.27
2022-10-26T16:31:38.428Z,17.09
2022-10-26T16:34:23.240Z,16.77
2022-10-26T16:37:08.083Z,16.39
2022-10-26T16:39:52.924Z,16.13
2022-10-26T16:42:37.997Z,16.29
2022-10-26T16:45:23.026Z,16.43
2022-10-26T16:48:09.222Z,16.45
2022-10-26T16:50:54.115Z,16.13
2022-10-26T16:53:40.436Z,16.32
2022-10-26T16:56:29.731Z,16.02
2022-10-26T16:59:14.747Z,16.00
2022-10-26T17:01:59.818Z,15.90
2022-10-26T17:04:44.855Z,15.68
2022-10-26T17:07:29.611Z,15.84
2022-10-26T17:10:14.603Z,15.37
2022-10-26T17:12:59.443Z,15.22
2022-10-26T17:15:45.416Z,15.25
2022-10-26T17:18:30.616Z,15.30
2022-10-26T17:21:17.736Z,15.49
2022-10-26T17:24:03.309Z,15.35
2022-10-26T17:26:48.647Z,15.25
2022-10-26T17:29:33.357Z,15.02
2022-10-26T17:32:18.147Z,14.95
2022-10-26T17:35:03.972Z,15.13
2022-10-26T17:37:49.565Z,15.34
2022-10-26T17:40:34.588Z,15.10
2022-10-26T17:43:19.573Z,14.68
2022-10-26T17:46:07.499Z,14.47
2022-10-26T17:48:57.273Z,14.70
2022-10-26T17:51:42.416Z,14.76
2022-10-26T17:54:27.224Z,14.72
2022-10-26T17:57:11.988Z,14.75
2022-10-26T17:59:56.953Z,14.95
2022-10-26T18:02:41.979Z,14.90
2022-10-26T18:05:27.368Z,14.55
2022-10-26T18:08:12.419Z,14.70
2022-10-26T18:10:57.334Z,14.55
2022-10-26T18:13:42.660Z,14.52
2022-10-26T18:16:28.035Z,14.26
2022-10-26T18:19:13.266Z,14.01
2022-10-26T18:21:58.481Z,14.27
2022-10-26T18:24:43.325Z,14.38
2022-10-26T18:27:28.540Z,14.35
2022-10-26T18:30:13.842Z,14.41
2022-10-26T18:32:58.890Z,14.39
2022-10-26T18:35:43.851Z,14.39
2022-10-26T18:38:29.444Z,14.06
2022-10-26T18:41:16.454Z,13.88
2022-10-26T18:44:01.430Z,13.99
2022-10-26T18:46:46.669Z,13.83
2022-10-26T18:49:31.465Z,13.79
2022-10-26T18:52:16.871Z,13.54
2022-10-26T18:55:01.765Z,13.58
2022-10-26T18:57:46.718Z,13.49
2022-10-26T19:00:31.686Z,13.56
2022-10-26T19:03:17.140Z,13.73
2022-10-26T19:06:12.729Z,13.77
2022-10-26T19:08:58.113Z,13.83
2022-10-26T19:11:43.159Z,13.92
2022-10-26T19:14:28.364Z,13.87
2022-10-26T19:17:13.230Z,13.70
2022-10-26T19:19:58.157Z,13.75
2022-10-26T19:22:43.453Z,13.51
2022-10-26T19:25:28.454Z,13.49
2022-10-26T19:28:13.339Z,13.29
2022-10-26T19:30:58.646Z,13.10
2022-10-26T19:33:43.546Z,13.06
2022-10-26T19:36:29.588Z,13.02
2022-10-26T19:39:16.434Z,13.22
2022-10-26T19:42:01.586Z,13.55
2022-10-26T19:44:46.362Z,13.58
2022-10-26T19:47:31.828Z,13.56
2022-10-26T19:50:17.154Z,13.45
2022-10-26T19:53:02.184Z,13.57
2022-10-26T19:55:48.329Z,13.45
2022-10-26T19:58:33.426Z,13.56
2022-10-26T20:01:18.597Z,13.62
2022-10-26T20:04:04.255Z,13.60
2022-10-26T20:06:49.380Z,13.16
2022-10-26T20:09:34.509Z,13.09
2022-10-26T20:12:19.978Z,13.23
2022-10-26T20:15:05.111Z,13.43
2022-10-26T20:17:50.270Z,13.41
2022-10-26T20:20:35.549Z,13.18
2022-10-26T20:23:20.418Z,13.22
2022-10-26T20:28:56.285Z,13.16
2022-10-26T20:31:41.625Z,13.08
2022-10-26T20:37:14.619Z,13.17
2022-10-26T20:39:59.919Z,13.26
2022-10-26T20:42:45.463Z,13.33
2022-10-26T20:45:31.934Z,13.40
2022-10-26T20:48:17.567Z,13.18
2022-10-26T20:51:06.012Z,12.84
2022-10-26T20:54:01.467Z,12.72
2022-10-26T20:56:48.651Z,12.81
2022-10-26T20:59:56.413Z,12.86
2022-10-26T21:02:41.444Z,12.92
2022-10-26T21:05:26.398Z,12.81
2022-10-26T21:08:11.591Z,12.81
2022-10-26T21:10:56.863Z,12.82
2022-10-26T21:13:43.712Z,12.78
2022-10-26T21:16:28.613Z,12.72
2022-10-26T21:19:13.912Z,12.83
2022-10-26T21:21:58.683Z,12.72
2022-10-26T21:24:43.628Z,12.81
2022-10-26T21:27:28.446Z,12.76
2022-10-26T21:30:13.751Z,12.69
2022-10-26T21:32:58.701Z,12.76
2022-10-26T21:35:52.203Z,12.68
2022-10-26T21:38:37.699Z,12.82
2022-10-26T21:41:22.503Z,12.88
2022-10-26T21:44:14.989Z,12.93
2022-10-26T21:47:11.980Z,12.92
2022-10-26T21:49:56.981Z,12.91
2022-10-26T21:52:41.919Z,12.96
2022-10-26T21:55:26.750Z,12.93
2022-10-26T21:58:11.923Z,13.07
2022-10-26T22:01:12.003Z,13.04
2022-10-26T22:03:57.004Z,13.02
2022-10-26T22:06:42.064Z,12.93
2022-10-26T22:09:27.161Z,12.88
2022-10-26T22:12:12.102Z,12.86
2022-10-26T22:14:57.088Z,12.84
2022-10-26T22:17:42.785Z,12.78
2022-10-26T22:20:27.672Z,12.76
2022-10-26T22:23:12.679Z,12.88
2022-10-26T22:26:01.646Z,12.98
2022-10-26T22:28:48.233Z,13.00
2022-10-26T22:31:37.079Z,12.93
2022-10-26T22:34:21.909Z,13.04
2022-10-26T22:37:06.802Z,13.11
2022-10-26T22:39:51.818Z,13.04
2022-10-26T22:42:36.545Z,12.85
2022-10-26T22:45:21.530Z,12.71
2022-10-26T22:50:51.378Z,12.54
2022-10-26T22:53:36.757Z,12.48
2022-10-26T22:56:23.522Z,12.46
2022-10-26T22:59:08.541Z,12.48
2022-10-26T23:01:53.408Z,12.54
2022-10-26T23:04:38.670Z,12.41
2022-10-26T23:07:23.858Z,12.36
2022-10-26T23:10:09.404Z,12.51
2022-10-26T23:12:54.836Z,12.52
2022-10-26T23:15:40.173Z,12.40
2022-10-26T23:18:25.547Z,12.40
2022-10-26T23:21:12.363Z,12.29
2022-10-26T23:23:57.611Z,12.28
2022-10-26T23:26:42.912Z,12.34
2022-10-26T23:29:27.810Z,12.41
2022-10-26T23:32:12.720Z,12.40
2022-10-26T23:34:57.518Z,12.36
2022-10-26T23:37:42.729Z,12.35
2022-10-26T23:40:27.904Z,12.28
2022-10-26T23:43:12.858Z,12.49
2022-10-26T23:45:57.689Z,12.31
2022-10-26T23:48:43.047Z,12.32
2022-10-26T23:51:27.951Z,12.30
2022-10-26T23:54:12.910Z,12.37
2022-10-26T23:56:58.157Z,12.38
2022-10-26T23:59:42.911Z,12.36
